createdAt,value
2023-01-28T00:02:17.131Z,101901.25
2023-01-28T00:04:45.349Z,101903.13
2023-01-28T00:07:13.136Z,101910.03
2023-01-28T00:09:42.593Z,101916.25
2023-01-28T00:12:11.850Z,101906.03
2023-01-28T00:14:39.951Z,101919.03
2023-01-28T00:17:07.771Z,101912.28
2023-01-28T00:19:35.737Z,101915.94
2023-01-28T00:22:04.436Z,101912.72
2023-01-28T00:24:32.443Z,101910.69
2023-01-28T00:27:00.495Z,101901.22
2023-01-28T00:29:29.603Z,101905.63
2023-01-28T00:31:57.526Z,101903.19
2023-01-28T00:34:25.233Z,101897.28
2023-01-28T00:36:57.754Z,101893.06
2023-01-28T00:39:26.320Z,101896.44
2023-01-28T00:41:54.792Z,101895.69
2023-01-28T00:44:25.753Z,101886.41
2023-01-28T00:46:54.982Z,101894.25
2023-01-28T00:49:23.393Z,101892.63
2023-01-28T00:51:51.154Z,101898.69
2023-01-28T00:54:18.895Z,101896.19
2023-01-28T00:56:49.150Z,101893.69
2023-01-28T00:59:16.964Z,101894.94
2023-01-28T01:01:51.042Z,101896.78
2023-01-28T01:04:26.959Z,101895.28
2023-01-28T01:06:54.900Z,101897.31
2023-01-28T01:09:22.925Z,101893.00
2023-01-28T01:11:50.787Z,101883.00
2023-01-28T01:14:18.508Z,101889.13
2023-01-28T01:16:46.584Z,101888.34
2023-01-28T01:19:17.916Z,101897.38
2023-01-28T01:21:50.508Z,101903.50
2023-01-28T01:24:18.703Z,101909.75
2023-01-28T01:26:46.414Z,101908.72
2023-01-28T01:29:14.134Z,101910.38
2023-01-28T01:31:42.071Z,101908.47
2023-01-28T01:34:10.917Z,101908.63
2023-01-28T01:36:38.634Z,101913.13
2023-01-28T01:39:07.707Z,101903.72
2023-01-28T01:41:35.442Z,101908.00
2023-01-28T01:44:05.887Z,101903.69
2023-01-28T01:46:37.368Z,101896.34
2023-01-28T01:49:13.933Z,101895.34
2023-01-28T01:51:42.541Z,101890.81
2023-01-28T01:54:11.896Z,101895.81
2023-01-28T01:56:44.183Z,101903.59
2023-01-28T01:59:15.168Z,101910.72
2023-01-28T02:01:45.612Z,101912.75
2023-01-28T02:04:20.245Z,101905.88
2023-01-28T02:06:48.882Z,101908.72
2023-01-28T02:09:27.069Z,101903.16
2023-01-28T02:11:57.527Z,101909.22
2023-01-28T02:14:31.538Z,101907.59
2023-01-28T02:17:00.225Z,101910.16
2023-01-28T02:19:36.326Z,101908.41
2023-01-28T02:22:39.828Z,101909.09
2023-01-28T02:25:28.588Z,101896.41
2023-01-28T02:28:15.871Z,101908.31
2023-01-28T02:30:49.991Z,101884.31
2023-01-28T02:33:27.921Z,101918.53
2023-01-28T02:35:57.250Z,101921.25
2023-01-28T02:38:30.432Z,101927.44
2023-01-28T02:41:06.409Z,101924.56
2023-01-28T02:43:39.110Z,101916.19
2023-01-28T02:46:35.859Z,101917.09
2023-01-28T02:49:08.164Z,101919.66
2023-01-28T02:51:58.519Z,101930.94
2023-01-28T02:54:37.254Z,101931.81
2023-01-28T02:57:15.938Z,101936.03
2023-01-28T02:59:52.359Z,101941.97
2023-01-28T03:02:26.915Z,101943.72
2023-01-28T03:05:01.887Z,101941.16
2023-01-28T03:07:33.252Z,101945.44
2023-01-28T03:10:04.347Z,101956.81
2023-01-28T03:12:51.248Z,101957.78
2023-01-28T03:15:41.122Z,101945.53
2023-01-28T03:18:31.774Z,101951.50
2023-01-28T03:21:24.552Z,101957.50
2023-01-28T03:24:14.892Z,101951.19
2023-01-28T03:27:06.742Z,101949.22
2023-01-28T03:29:53.819Z,101954.34
2023-01-28T03:32:41.945Z,101955.09
2023-01-28T03:35:30.814Z,101956.84
2023-01-28T03:38:00.324Z,101954.09
2023-01-28T03:40:29.529Z,101953.06
2023-01-28T03:42:57.629Z,101951.25
2023-01-28T03:45:35.828Z,101947.66
2023-01-28T03:48:08.039Z,101944.13
2023-01-28T03:50:35.923Z,101950.19
2023-01-28T03:53:16.317Z,101950.06
2023-01-28T03:55:53.581Z,101958.66
2023-01-28T03:58:22.786Z,101957.81
2023-01-28T04:00:52.079Z,101957.75
2023-01-28T04:03:22.229Z,101954.34
2023-01-28T04:06:02.141Z,101963.75
2023-01-28T04:08:59.201Z,101968.06
2023-01-28T04:11:39.553Z,101962.84
2023-01-28T04:14:08.305Z,101976.75
2023-01-28T04:16:50.412Z,101974.28
2023-01-28T04:19:20.234Z,101973.38
2023-01-28T04:21:48.996Z,101979.50
2023-01-28T04:24:17.601Z,101978.56
2023-01-28T04:26:45.802Z,101984.69
2023-01-28T04:29:13.736Z,101982.09
2023-01-28T04:31:41.593Z,101989.81
2023-01-28T04:34:25.647Z,101976.63
2023-01-28T04:37:03.370Z,101987.06
2023-01-28T04:39:43.740Z,101986.22
2023-01-28T04:42:20.613Z,101983.69
2023-01-28T04:45:02.765Z,101996.75
2023-01-28T04:48:08.866Z,101995.00
2023-01-28T04:50:55.179Z,102002.84
2023-01-28T04:53:38.904Z,101997.53
2023-01-28T04:56:09.070Z,102000.84
2023-01-28T04:58:37.450Z,102002.56
2023-01-28T05:01:10.339Z,101995.56
2023-01-28T05:03:38.072Z,102005.88
2023-01-28T05:06:10.372Z,101996.44
2023-01-28T05:08:42.469Z,101995.47
2023-01-28T05:11:10.398Z,102002.47
2023-01-28T05:13:38.230Z,102000.84
2023-01-28T05:16:08.598Z,101979.38
2023-01-28T05:18:37.137Z,101993.91
2023-01-28T05:21:17.715Z,101999.03
2023-01-28T05:23:47.616Z,102000.84
2023-01-28T05:26:15.879Z,102004.16
2023-01-28T05:28:44.631Z,102005.06
2023-01-28T05:31:12.720Z,101984.47
2023-01-28T05:33:40.553Z,101980.28
2023-01-28T05:36:11.750Z,102001.59
2023-01-28T05:38:42.321Z,101992.84
2023-01-28T05:41:10.141Z,101995.44
2023-01-28T05:43:38.436Z,102000.75
2023-01-28T05:46:25.115Z,101997.22
2023-01-28T05:49:08.623Z,101996.63
2023-01-28T05:52:09.705Z,101995.63
2023-01-28T05:54:39.980Z,102007.78
2023-01-28T05:57:08.141Z,102011.25
2023-01-28T05:59:35.874Z,102012.09
2023-01-28T06:02:03.907Z,102022.56
2023-01-28T06:04:31.656Z,102014.81
2023-01-28T06:07:00.571Z,102032.09
2023-01-28T06:09:28.891Z,102033.06
2023-01-28T06:11:58.715Z,102033.00
2023-01-28T06:14:26.945Z,102033.91
2023-01-28T06:17:12.507Z,102032.09
2023-01-28T06:19:48.633Z,102039.97
2023-01-28T06:22:17.307Z,102026.97
2023-01-28T06:24:45.683Z,102033.06
2023-01-28T06:27:14.914Z,102037.31
2023-01-28T06:29:42.691Z,102034.72
2023-01-28T06:32:10.557Z,102032.09
2023-01-28T06:34:38.288Z,102034.00
2023-01-28T06:37:09.175Z,102033.91
2023-01-28T06:39:36.968Z,102033.91
2023-01-28T06:42:04.799Z,102033.81
2023-01-28T06:44:34.144Z,102033.81
2023-01-28T06:47:02.048Z,102022.66
2023-01-28T06:49:30.303Z,102026.91
2023-01-28T06:51:58.102Z,102028.69
2023-01-28T06:54:26.100Z,102027.06
2023-01-28T06:56:54.063Z,102035.72
2023-01-28T06:59:21.865Z,102035.03
2023-01-28T07:01:51.259Z,102035.72
2023-01-28T07:04:19.050Z,102044.41
2023-01-28T07:06:46.830Z,102040.94
2023-01-28T07:09:14.640Z,102056.72
2023-01-28T07:11:42.407Z,102048.81
2023-01-28T07:14:10.174Z,102050.56
2023-01-28T07:16:37.918Z,102050.53
2023-01-28T07:19:07.043Z,102051.44
2023-01-28T07:21:34.855Z,102045.25
2023-01-28T07:24:05.284Z,102047.88
2023-01-28T07:26:33.196Z,102046.91
2023-01-28T07:29:01.275Z,102052.19
2023-01-28T07:31:29.130Z,102044.44
2023-01-28T07:33:56.942Z,102048.72
2023-01-28T07:36:26.091Z,102054.00
2023-01-28T07:38:53.866Z,102046.16
2023-01-28T07:41:21.617Z,102041.03
2023-01-28T07:43:49.336Z,102051.38
2023-01-28T07:46:18.197Z,102048.00
2023-01-28T07:48:45.991Z,102034.91
2023-01-28T07:51:13.695Z,102043.69
2023-01-28T07:53:43.020Z,102046.16
2023-01-28T07:56:10.858Z,102049.69
2023-01-28T07:58:39.687Z,102054.13
2023-01-28T08:01:07.576Z,102041.34
2023-01-28T08:03:36.053Z,102060.34
2023-01-28T08:06:03.781Z,102062.91
2023-01-28T08:08:32.013Z,102063.63
2023-01-28T08:11:09.531Z,102070.66
2023-01-28T08:13:37.424Z,102083.09
2023-01-28T08:16:05.846Z,102088.28
2023-01-28T08:18:33.601Z,102093.41
2023-01-28T08:21:01.464Z,102092.56
2023-01-28T08:23:30.369Z,102092.50
2023-01-28T08:25:59.359Z,102105.44
2023-01-28T08:28:29.012Z,102076.03
2023-01-28T08:30:56.841Z,102093.13
2023-01-28T08:33:24.554Z,102095.66
2023-01-28T08:35:52.264Z,102099.09
2023-01-28T08:38:20.434Z,102101.66
2023-01-28T08:40:50.478Z,102100.84
2023-01-28T08:43:18.195Z,102107.72
2023-01-28T08:45:47.324Z,102110.38
2023-01-28T08:48:18.032Z,102120.84
2023-01-28T08:50:46.499Z,102120.75
2023-01-28T08:53:16.079Z,102114.75
2023-01-28T08:55:43.831Z,102113.69
2023-01-28T08:58:13.408Z,102117.19
2023-01-28T09:00:41.847Z,102123.41
2023-01-28T09:03:11.033Z,102127.72
2023-01-28T09:05:39.496Z,102133.69
2023-01-28T09:08:09.948Z,102137.88
2023-01-28T09:10:38.460Z,102127.47
2023-01-28T09:13:07.125Z,102134.50
2023-01-28T09:15:34.962Z,102138.81
2023-01-28T09:18:02.736Z,102141.53
2023-01-28T09:20:33.009Z,102154.31
2023-01-28T09:23:01.762Z,102156.94
2023-01-28T09:25:29.573Z,102167.44
2023-01-28T09:27:58.218Z,102177.03
2023-01-28T09:30:26.312Z,102176.03
2023-01-28T09:32:55.899Z,102178.75
2023-01-28T09:35:24.064Z,102177.94
2023-01-28T09:37:53.426Z,102183.16
2023-01-28T09:40:31.413Z,102177.94
2023-01-28T09:43:09.414Z,102181.41
2023-01-28T09:45:41.647Z,102180.50
2023-01-28T09:48:15.526Z,102197.88
2023-01-28T09:50:46.733Z,102184.72
2023-01-28T09:53:20.398Z,102186.47
2023-01-28T09:55:51.482Z,102181.41
2023-01-28T09:58:19.559Z,102194.31
2023-01-28T10:00:59.137Z,102195.09
2023-01-28T10:03:51.148Z,102184.66
2023-01-28T10:06:27.499Z,102184.59
2023-01-28T10:09:15.419Z,102193.28
2023-01-28T10:12:05.470Z,102195.81
2023-01-28T10:14:50.918Z,102188.66
2023-01-28T10:17:26.061Z,102186.03
2023-01-28T10:19:59.542Z,102183.47
2023-01-28T10:22:31.965Z,102182.75
2023-01-28T10:25:06.796Z,102195.53
2023-01-28T10:27:37.416Z,102187.69
2023-01-28T10:30:19.631Z,102191.91
2023-01-28T10:32:53.484Z,102191.72
2023-01-28T10:35:21.774Z,102184.00
2023-01-28T10:37:50.415Z,102187.56
2023-01-28T10:40:20.029Z,102188.88
2023-01-28T10:42:47.766Z,102187.38
2023-01-28T10:45:23.635Z,102193.63
2023-01-28T10:47:55.441Z,102195.53
2023-01-28T10:50:25.189Z,102191.09
2023-01-28T10:52:57.663Z,102191.09
2023-01-28T10:55:30.503Z,102189.38
2023-01-28T10:57:59.182Z,102176.03
2023-01-28T11:00:30.797Z,102188.44
2023-01-28T11:02:58.911Z,102191.72
2023-01-28T11:05:28.439Z,102180.34
2023-01-28T11:08:08.201Z,102189.00
2023-01-28T11:10:40.314Z,102190.81
2023-01-28T11:13:20.126Z,102189.09
2023-01-28T11:15:49.420Z,102192.63
2023-01-28T11:18:25.516Z,102195.28
2023-01-28T11:20:56.823Z,102190.09
2023-01-28T11:23:27.954Z,102193.53
2023-01-28T11:26:06.845Z,102189.16
2023-01-28T11:28:35.108Z,102190.13
2023-01-28T11:31:05.388Z,102174.50
2023-01-28T11:33:40.908Z,102183.16
2023-01-28T11:36:14.824Z,102196.91
2023-01-28T11:38:50.686Z,102200.31
2023-01-28T11:41:24.199Z,102201.28
2023-01-28T11:43:52.622Z,102208.25
2023-01-28T11:46:44.100Z,102201.38
2023-01-28T11:49:20.814Z,102200.28
2023-01-28T11:51:57.684Z,102201.38
2023-01-28T11:54:47.081Z,102201.28
2023-01-28T11:57:27.299Z,102202.06
2023-01-28T12:00:11.104Z,102196.19
2023-01-28T12:02:51.625Z,102200.66
2023-01-28T12:05:49.731Z,102183.28
2023-01-28T12:08:24.949Z,102178.91
2023-01-28T12:11:09.836Z,102187.47
2023-01-28T12:13:56.200Z,102182.19
2023-01-28T12:16:44.752Z,102171.84
2023-01-28T12:19:24.043Z,102176.22
2023-01-28T12:22:05.471Z,102170.09
2023-01-28T12:24:47.385Z,102178.81
2023-01-28T12:27:27.872Z,102170.94
2023-01-28T12:30:06.602Z,102170.94
2023-01-28T12:32:50.418Z,102180.63
2023-01-28T12:35:39.741Z,102177.25
2023-01-28T12:38:15.191Z,102183.28
2023-01-28T12:40:59.578Z,102183.25
2023-01-28T12:43:42.485Z,102181.66
2023-01-28T12:46:18.884Z,102168.31
2023-01-28T12:48:50.785Z,102166.56
2023-01-28T12:51:24.504Z,102148.22
2023-01-28T12:53:57.876Z,102147.16
2023-01-28T12:56:30.971Z,102143.56
2023-01-28T12:59:03.452Z,102142.78
2023-01-28T13:01:40.147Z,102136.69
2023-01-28T13:04:14.678Z,102133.88
2023-01-28T13:06:48.823Z,102121.22
2023-01-28T13:09:20.302Z,102111.25
2023-01-28T13:11:50.810Z,102103.34
2023-01-28T13:14:20.909Z,102100.69
2023-01-28T13:16:50.016Z,102109.13
2023-01-28T13:19:25.735Z,102107.31
2023-01-28T13:21:53.825Z,102097.88
2023-01-28T13:24:31.785Z,102077.00
2023-01-28T13:26:59.814Z,102072.00
2023-01-28T13:29:35.565Z,102077.84
2023-01-28T13:32:30.419Z,102061.31
2023-01-28T13:35:01.752Z,102056.88
2023-01-28T13:37:35.613Z,102011.84
2023-01-28T13:40:09.337Z,102046.69
2023-01-28T13:42:37.749Z,102051.50
2023-01-28T13:45:23.445Z,102102.88
2023-01-28T13:47:57.032Z,102113.03
2023-01-28T13:50:29.010Z,102101.53
2023-01-28T13:53:05.646Z,102099.47
2023-01-28T13:55:44.662Z,102107.78
2023-01-28T13:58:44.626Z,102105.69
2023-01-28T14:01:37.884Z,102115.75
2023-01-28T14:04:38.825Z,102111.66
2023-01-28T14:07:48.127Z,102116.22
2023-01-28T14:10:33.097Z,102116.22
2023-01-28T14:13:33.608Z,102141.75
2023-01-28T14:16:31.450Z,102137.00
2023-01-28T14:19:02.788Z,102145.88
2023-01-28T14:21:35.505Z,102134.41
2023-01-28T14:24:05.672Z,102143.59
2023-01-28T14:26:46.858Z,102143.91
2023-01-28T14:29:28.350Z,102140.69
2023-01-28T14:31:56.744Z,102145.06
2023-01-28T14:34:28.654Z,102134.69
2023-01-28T14:36:59.732Z,102126.34
2023-01-28T14:39:30.987Z,102134.13
2023-01-28T14:42:02.243Z,102133.75
2023-01-28T14:44:34.059Z,102129.41
2023-01-28T14:47:20.969Z,102126.34
2023-01-28T14:50:03.946Z,102131.88
2023-01-28T14:52:49.315Z,102123.13
2023-01-28T14:55:31.220Z,102122.50
2023-01-28T14:58:01.734Z,102106.06
2023-01-28T15:00:31.966Z,102103.84
2023-01-28T15:03:01.855Z,102112.78
2023-01-28T15:05:31.760Z,102110.13
2023-01-28T15:07:59.512Z,102103.38
2023-01-28T15:10:31.492Z,102099.06
2023-01-28T15:13:04.377Z,102086.31
2023-01-28T15:15:34.973Z,102083.66
2023-01-28T15:18:09.017Z,102077.78
2023-01-28T15:20:36.912Z,102080.44
2023-01-28T15:23:08.324Z,102090.38
2023-01-28T15:25:38.122Z,102081.81
2023-01-28T15:28:06.921Z,102074.78
2023-01-28T15:30:34.985Z,102054.50
2023-01-28T15:33:05.555Z,102083.88
2023-01-28T15:35:34.473Z,102096.28
2023-01-28T15:38:04.447Z,102092.81
2023-01-28T15:40:41.982Z,102105.06
2023-01-28T15:43:18.683Z,102106.88
2023-01-28T15:45:48.661Z,102088.28
2023-01-28T15:48:17.266Z,102110.66
2023-01-28T15:50:45.876Z,102113.66
2023-01-28T15:53:15.251Z,102111.97
2023-01-28T15:55:44.669Z,102104.44
2023-01-28T15:58:22.080Z,102113.25
2023-01-28T16:00:50.474Z,102109.13
2023-01-28T16:03:21.641Z,102111.84
2023-01-28T16:06:00.110Z,102114.56
2023-01-28T16:08:35.201Z,102113.13
2023-01-28T16:11:03.275Z,102122.75
2023-01-28T16:13:34.679Z,102125.53
2023-01-28T16:16:05.805Z,102119.94
2023-01-28T16:18:43.280Z,102130.81
2023-01-28T16:21:13.708Z,102139.19
2023-01-28T16:23:41.450Z,102133.19
2023-01-28T16:26:22.622Z,102130.00
2023-01-28T16:28:51.990Z,102127.38
2023-01-28T16:31:20.377Z,102140.56
2023-01-28T16:33:48.608Z,102150.91
2023-01-28T16:36:19.171Z,102155.84
2023-01-28T16:38:46.968Z,102174.09
2023-01-28T16:41:21.185Z,102183.81
2023-01-28T16:43:49.074Z,102186.34
2023-01-28T16:46:18.224Z,102190.28
2023-01-28T16:48:46.112Z,102205.88
2023-01-28T16:51:18.941Z,102194.78
2023-01-28T16:53:48.680Z,102187.66
2023-01-28T16:56:30.557Z,102193.69
2023-01-28T16:59:06.227Z,102202.22
2023-01-28T17:01:35.912Z,102202.31
2023-01-28T17:04:05.584Z,102199.78
2023-01-28T17:06:33.370Z,102199.94
2023-01-28T17:09:03.278Z,102207.94
2023-01-28T17:11:31.068Z,102200.41
2023-01-28T17:13:59.026Z,102216.06
2023-01-28T17:16:27.222Z,102206.59
2023-01-28T17:18:56.586Z,102189.34
2023-01-28T17:21:24.482Z,102172.28
2023-01-28T17:23:52.185Z,102183.47
2023-01-28T17:26:19.912Z,102187.16
2023-01-28T17:28:52.845Z,102187.31
2023-01-28T17:31:21.607Z,102166.91
2023-01-28T17:33:53.983Z,102179.91
2023-01-28T17:36:23.367Z,102183.41
2023-01-28T17:38:51.296Z,102174.94
2023-01-28T17:41:19.834Z,102170.72
2023-01-28T17:43:51.629Z,102162.19
2023-01-28T17:46:20.329Z,102160.69
2023-01-28T17:48:48.375Z,102167.59
2023-01-28T17:51:18.641Z,102160.81
2023-01-28T17:53:48.453Z,102160.59
2023-01-28T17:56:20.593Z,102174.38
2023-01-28T17:58:52.493Z,102150.50
2023-01-28T18:01:20.989Z,102149.59
2023-01-28T18:03:48.784Z,102167.66
2023-01-28T18:06:16.997Z,102183.31
2023-01-28T18:08:45.377Z,102197.09
2023-01-28T18:11:16.658Z,102218.81
2023-01-28T18:13:44.487Z,102225.72
2023-01-28T18:16:16.027Z,102238.72
2023-01-28T18:18:43.995Z,102235.22
2023-01-28T18:21:21.180Z,102226.81
2023-01-28T18:23:49.003Z,102225.91
2023-01-28T18:26:18.336Z,102231.16
2023-01-28T18:28:46.100Z,102236.44
2023-01-28T18:31:13.947Z,102223.50
2023-01-28T18:33:41.784Z,102230.34
2023-01-28T18:36:10.731Z,102240.88
2023-01-28T18:38:38.851Z,102245.38
2023-01-28T18:41:06.757Z,102246.13
2023-01-28T18:43:36.006Z,102251.31
2023-01-28T18:46:11.104Z,102251.31
2023-01-28T18:48:39.110Z,102245.28
2023-01-28T18:51:12.341Z,102240.97
2023-01-28T18:53:45.388Z,102230.63
2023-01-28T18:56:13.113Z,102243.66
2023-01-28T18:58:42.211Z,102229.97
2023-01-28T19:01:10.527Z,102255.00
2023-01-28T19:03:39.175Z,102233.72
2023-01-28T19:06:08.144Z,102248.19
2023-01-28T19:08:41.813Z,102232.78
2023-01-28T19:11:09.661Z,102248.22
2023-01-28T19:13:37.507Z,102252.03
2023-01-28T19:16:07.186Z,102251.25
2023-01-28T19:18:34.969Z,102252.13
2023-01-28T19:21:03.679Z,102253.72
2023-01-28T19:23:47.984Z,102248.56
2023-01-28T19:26:21.307Z,102232.25
2023-01-28T19:28:50.246Z,102254.63
2023-01-28T19:31:20.762Z,102249.50
2023-01-28T19:33:49.405Z,102252.00
2023-01-28T19:36:17.361Z,102246.06
2023-01-28T19:38:45.138Z,102254.78
2023-01-28T19:41:16.193Z,102253.94
2023-01-28T19:43:44.407Z,102247.16
2023-01-28T19:46:15.767Z,102249.03
2023-01-28T19:48:45.611Z,102245.59
2023-01-28T19:51:15.355Z,102255.94
2023-01-28T19:53:44.488Z,102259.38
2023-01-28T19:56:14.969Z,102268.97
2023-01-28T19:58:44.736Z,102258.72
2023-01-28T20:01:14.879Z,102240.63
2023-01-28T20:03:43.347Z,102274.00
2023-01-28T20:06:16.245Z,102267.94
2023-01-28T20:08:44.819Z,102266.47
2023-01-28T20:11:16.001Z,102263.81
2023-01-28T20:13:46.254Z,102283.91
2023-01-28T20:16:18.383Z,102285.50
2023-01-28T20:18:50.341Z,102271.66
2023-01-28T20:21:20.565Z,102279.56
2023-01-28T20:23:49.046Z,102270.41
2023-01-28T20:26:17.541Z,102264.16
2023-01-28T20:28:45.418Z,102266.91
2023-01-28T20:31:13.308Z,102261.69
2023-01-28T20:33:41.376Z,102265.09
2023-01-28T20:36:11.629Z,102266.03
2023-01-28T20:38:42.925Z,102262.56
2023-01-28T20:41:13.156Z,102265.19
2023-01-28T20:43:42.453Z,102259.97
2023-01-28T20:46:13.256Z,102259.88
2023-01-28T20:48:41.065Z,102252.25
2023-01-28T20:51:11.171Z,102255.72
2023-01-28T20:53:41.676Z,102249.63
2023-01-28T20:56:14.609Z,102252.09
2023-01-28T20:58:43.006Z,102252.09
2023-01-28T21:01:18.367Z,102244.19
2023-01-28T21:03:46.629Z,102244.28
2023-01-28T21:06:14.388Z,102231.50
2023-01-28T21:08:43.791Z,102235.88
2023-01-28T21:11:11.800Z,102234.31
2023-01-28T21:13:39.698Z,102230.75
2023-01-28T21:16:08.390Z,102229.84
2023-01-28T21:18:36.406Z,102236.84
2023-01-28T21:21:05.584Z,102231.72
2023-01-28T21:23:33.358Z,102237.66
2023-01-28T21:26:04.683Z,102234.25
2023-01-28T21:28:32.383Z,102234.38
2023-01-28T21:31:08.368Z,102231.81
2023-01-28T21:33:36.214Z,102224.84
2023-01-28T21:36:09.764Z,102210.97
2023-01-28T21:38:37.510Z,102208.34
2023-01-28T21:41:07.443Z,102211.66
2023-01-28T21:43:35.336Z,102199.66
2023-01-28T21:46:03.951Z,102201.38
2023-01-28T21:48:31.800Z,102202.19
2023-01-28T21:51:23.140Z,102205.56
2023-01-28T21:53:50.923Z,102213.34
2023-01-28T21:56:19.976Z,102211.59
2023-01-28T21:59:05.014Z,102213.44
2023-01-28T22:01:32.780Z,102206.44
2023-01-28T22:04:00.564Z,102204.97
2023-01-28T22:06:28.772Z,102206.59
2023-01-28T22:08:56.750Z,102203.09
2023-01-28T22:11:25.846Z,102202.22
2023-01-28T22:13:53.586Z,102194.50
2023-01-28T22:16:21.427Z,102201.47
2023-01-28T22:18:50.168Z,102204.84
2023-01-28T22:21:18.089Z,102203.13
2023-01-28T22:23:45.911Z,102214.41
2023-01-28T22:26:13.646Z,102210.94
2023-01-28T22:28:42.948Z,102211.78
2023-01-28T22:31:12.257Z,102211.75
2023-01-28T22:33:44.761Z,102216.91
2023-01-28T22:36:15.339Z,102213.50
2023-01-28T22:38:44.320Z,102221.34
2023-01-28T22:41:14.429Z,102212.59
2023-01-28T22:43:43.621Z,102223.78
2023-01-28T22:46:11.919Z,102226.47
2023-01-28T22:48:40.380Z,102225.66
2023-01-28T22:51:12.162Z,102226.59
2023-01-28T22:53:39.864Z,102226.63
2023-01-28T22:56:08.269Z,102236.94
2023-01-28T22:58:36.083Z,102230.88
2023-01-28T23:01:05.492Z,102229.25
2023-01-28T23:03:34.142Z,102234.44
2023-01-28T23:06:03.157Z,102253.53
2023-01-28T23:08:31.693Z,102241.41
2023-01-28T23:11:02.781Z,102238.00
2023-01-28T23:13:51.931Z,102233.78
2023-01-28T23:16:38.591Z,102236.44
2023-01-28T23:19:23.873Z,102232.97
2023-01-28T23:22:09.446Z,102232.88
2023-01-28T23:24:37.231Z,102239.91
2023-01-28T23:27:05.253Z,102238.28
2023-01-28T23:29:33.367Z,102229.66
2023-01-28T23:32:05.411Z,102227.88
2023-01-28T23:34:35.648Z,102229.53
2023-01-28T23:37:04.213Z,102219.25
2023-01-28T23:39:31.924Z,102217.41
2023-01-28T23:41:59.631Z,102225.31
2023-01-28T23:44:28.765Z,102217.53
2023-01-28T23:46:56.534Z,102212.34
2023-01-28T23:49:25.671Z,102215.97
2023-01-28T23:51:53.479Z,102215.91
2023-01-28T23:54:21.363Z,102210.81
2023-01-28T23:56:49.935Z,102206.41
2023-01-28T23:59:17.704Z,102205.56
